createdAt,value
2018-02-21T00:00:57.338Z,63.90
2018-02-21T00:03:24.794Z,63.90
2018-02-21T00:05:52.228Z,64.10
2018-02-21T00:08:19.680Z,64.20
2018-02-21T00:10:47.899Z,64.40
2018-02-21T00:13:15.341Z,64.40
2018-02-21T00:15:42.790Z,64.30
2018-02-21T00:18:11.023Z,64.20
2018-02-21T00:20:38.465Z,64.10
2018-02-21T00:23:05.910Z,64.20
2018-02-21T00:25:33.373Z,64.50
2018-02-21T00:28:00.844Z,64.50
2018-02-21T00:30:28.273Z,64.80
2018-02-21T00:32:56.503Z,64.70
2018-02-21T00:35:23.954Z,64.70
2018-02-21T00:37:51.412Z,64.60
2018-02-21T00:40:18.857Z,64.50
2018-02-21T00:42:46.320Z,64.50
2018-02-21T00:45:13.777Z,64.60
2018-02-21T00:47:41.230Z,64.50
2018-02-21T00:50:09.440Z,64.70
2018-02-21T00:52:36.906Z,64.70
2018-02-21T00:55:04.371Z,64.80
2018-02-21T00:57:31.819Z,64.80
2018-02-21T00:59:59.269Z,64.70
2018-02-21T01:02:26.726Z,64.60
2018-02-21T01:04:54.181Z,64.70
2018-02-21T01:07:22.414Z,64.90
2018-02-21T01:09:49.860Z,64.90
2018-02-21T01:12:17.327Z,64.90
2018-02-21T01:14:44.794Z,64.80
2018-02-21T01:17:12.245Z,64.90
2018-02-21T01:19:39.692Z,65.00
2018-02-21T01:22:07.133Z,65.00
2018-02-21T01:24:35.349Z,65.20
2018-02-21T01:27:02.811Z,65.20
2018-02-21T01:29:30.253Z,65.20
2018-02-21T01:31:57.711Z,65.30
2018-02-21T01:34:25.184Z,65.40
2018-02-21T01:36:52.629Z,65.40
2018-02-21T01:39:20.841Z,65.40
2018-02-21T01:41:48.288Z,65.30
2018-02-21T01:44:15.760Z,65.20
2018-02-21T01:46:43.203Z,65.10
2018-02-21T01:49:10.666Z,65.20
2018-02-21T01:51:38.125Z,65.20
2018-02-21T01:54:06.350Z,66.00
2018-02-21T01:56:33.807Z,66.00
2018-02-21T01:59:01.275Z,66.00
2018-02-21T02:01:28.740Z,66.20
2018-02-21T02:03:56.205Z,66.30
2018-02-21T02:06:23.659Z,66.20
2018-02-21T02:08:51.123Z,66.20
2018-02-21T02:11:18.599Z,66.20
2018-02-21T02:13:46.055Z,65.90
2018-02-21T02:16:14.270Z,65.90
2018-02-21T02:18:42.489Z,66.00
2018-02-21T02:21:09.948Z,66.00
2018-02-21T02:23:37.407Z,66.00
2018-02-21T02:26:04.866Z,66.10
2018-02-21T02:28:32.322Z,66.20
2018-02-21T02:30:59.770Z,66.20
2018-02-21T02:33:27.990Z,66.10
2018-02-21T02:35:55.527Z,66.10
2018-02-21T02:38:34.878Z,66.10
2018-02-21T02:41:02.326Z,66.20
2018-02-21T02:43:29.778Z,66.30
2018-02-21T02:45:57.246Z,66.30
2018-02-21T02:48:24.688Z,66.40
2018-02-21T02:50:52.923Z,66.30
2018-02-21T02:53:20.387Z,66.20
2018-02-21T02:55:47.868Z,66.30
2018-02-21T02:58:15.315Z,66.20
2018-02-21T03:00:42.787Z,66.40
2018-02-21T03:03:10.237Z,66.40
2018-02-21T03:05:37.703Z,66.40
2018-02-21T03:08:05.144Z,66.50
2018-02-21T03:10:32.607Z,66.50
2018-02-21T03:13:00.053Z,66.50
2018-02-21T03:15:27.505Z,66.60
2018-02-21T03:17:54.948Z,66.60
2018-02-21T03:20:23.167Z,66.80
2018-02-21T03:22:50.609Z,66.80
2018-02-21T03:25:18.075Z,66.90
2018-02-21T03:27:45.516Z,67.00
2018-02-21T03:30:13.733Z,66.80
2018-02-21T03:32:41.168Z,66.70
2018-02-21T03:35:09.392Z,66.80
2018-02-21T03:37:36.851Z,66.80
2018-02-21T03:40:04.320Z,66.80
2018-02-21T03:42:31.772Z,67.10
2018-02-21T03:44:59.240Z,67.10
2018-02-21T03:47:26.711Z,67.20
2018-02-21T03:49:54.160Z,67.20
2018-02-21T03:52:21.604Z,67.10
2018-02-21T03:54:49.058Z,67.30
2018-02-21T03:57:16.505Z,67.20
2018-02-21T03:59:44.728Z,67.10
2018-02-21T04:02:12.183Z,67.20
2018-02-21T04:04:39.625Z,67.30
2018-02-21T04:07:07.082Z,67.20
2018-02-21T04:09:35.296Z,67.20
2018-02-21T04:12:02.752Z,67.20
2018-02-21T04:14:30.199Z,67.20
2018-02-21T04:16:57.644Z,67.20
2018-02-21T04:19:25.127Z,67.10
2018-02-21T04:21:52.572Z,67.10
2018-02-21T04:24:20.023Z,67.40
2018-02-21T04:26:48.258Z,67.40
2018-02-21T04:29:15.708Z,67.40
2018-02-21T04:31:43.163Z,67.30
2018-02-21T04:34:10.619Z,67.30
2018-02-21T04:36:38.091Z,67.40
2018-02-21T04:39:05.542Z,67.30
2018-02-21T04:41:32.992Z,67.30
2018-02-21T04:44:00.432Z,67.20
2018-02-21T04:46:28.681Z,67.10
2018-02-21T04:48:56.129Z,67.10
2018-02-21T04:51:23.587Z,67.20
2018-02-21T04:53:51.042Z,67.10
2018-02-21T04:56:24.321Z,67.00
2018-02-21T04:58:57.462Z,67.00
2018-02-21T05:01:24.926Z,67.00
2018-02-21T05:03:52.382Z,66.80
2018-02-21T05:06:19.845Z,67.00
2018-02-21T05:08:47.293Z,67.20
2018-02-21T05:11:14.745Z,67.40
2018-02-21T05:13:42.196Z,67.50
2018-02-21T05:16:09.653Z,67.50
2018-02-21T05:18:37.100Z,67.50
2018-02-21T05:21:05.309Z,68.10
2018-02-21T05:23:32.773Z,68.10
2018-02-21T05:26:00.238Z,68.20
2018-02-21T05:28:27.703Z,68.30
2018-02-21T05:30:55.158Z,68.30
2018-02-21T05:33:22.604Z,68.30
2018-02-21T05:35:50.048Z,68.10
2018-02-21T05:38:18.279Z,68.00
2018-02-21T05:40:45.731Z,68.00
2018-02-21T05:43:13.191Z,68.20
2018-02-21T05:45:40.636Z,68.10
2018-02-21T05:48:08.121Z,68.10
2018-02-21T05:50:35.579Z,68.10
2018-02-21T05:53:03.090Z,68.10
2018-02-21T05:55:30.506Z,68.00
2018-02-21T05:57:58.063Z,68.00
2018-02-21T06:00:25.488Z,68.10
2018-02-21T06:02:53.717Z,68.20
2018-02-21T06:05:21.168Z,68.20
2018-02-21T06:07:48.635Z,68.30
2018-02-21T06:10:16.090Z,68.20
2018-02-21T06:12:43.570Z,68.20
2018-02-21T06:15:11.060Z,68.40
2018-02-21T06:17:38.527Z,68.50
2018-02-21T06:20:05.968Z,68.50
2018-02-21T06:22:33.610Z,68.60
2018-02-21T06:25:01.077Z,68.60
2018-02-21T06:27:28.536Z,68.50
2018-02-21T06:29:55.996Z,68.60
2018-02-21T06:32:23.561Z,68.60
2018-02-21T06:34:51.764Z,68.50
2018-02-21T06:37:19.231Z,68.40
2018-02-21T06:39:46.678Z,68.50
2018-02-21T06:42:14.125Z,68.40
2018-02-21T06:44:41.597Z,68.50
2018-02-21T06:47:09.050Z,68.60
2018-02-21T06:49:36.530Z,68.70
2018-02-21T06:52:03.969Z,68.70
2018-02-21T06:54:31.438Z,68.60
2018-02-21T06:56:58.895Z,68.60
2018-02-21T06:59:26.341Z,68.60
2018-02-21T07:01:53.811Z,68.80
2018-02-21T07:04:21.253Z,68.80
2018-02-21T07:06:49.479Z,69.10
2018-02-21T07:09:16.934Z,69.00
2018-02-21T07:11:44.399Z,69.00
2018-02-21T07:14:11.880Z,69.00
2018-02-21T07:16:39.319Z,69.10
2018-02-21T07:19:06.791Z,69.10
2018-02-21T07:21:34.228Z,69.30
2018-02-21T07:24:01.703Z,69.20
2018-02-21T07:26:29.165Z,69.20
2018-02-21T07:28:56.616Z,69.10
2018-02-21T07:31:24.062Z,69.20
2018-02-21T07:33:52.275Z,69.10
2018-02-21T07:36:19.734Z,69.10
2018-02-21T07:38:47.194Z,68.90
2018-02-21T07:41:14.659Z,68.90
2018-02-21T07:43:42.125Z,69.00
2018-02-21T07:46:09.565Z,69.10
2018-02-21T07:48:37.038Z,69.30
2018-02-21T07:51:04.518Z,69.40
2018-02-21T07:53:31.971Z,69.70
2018-02-21T07:55:59.427Z,69.70
2018-02-21T07:58:26.895Z,69.80
2018-02-21T08:00:54.346Z,69.90
2018-02-21T08:03:21.820Z,70.00
2018-02-21T08:05:49.261Z,69.90
2018-02-21T08:08:16.719Z,69.90
2018-02-21T08:10:44.950Z,69.80
2018-02-21T08:13:12.423Z,69.70
2018-02-21T08:15:39.861Z,69.80
2018-02-21T08:18:07.311Z,69.90
2018-02-21T08:20:34.762Z,70.10
2018-02-21T08:23:02.213Z,70.30
2018-02-21T08:25:29.677Z,70.30
2018-02-21T08:27:57.113Z,70.00
2018-02-21T08:30:25.337Z,70.40
2018-02-21T08:32:52.789Z,70.00
2018-02-21T08:35:20.253Z,70.00
2018-02-21T08:37:47.704Z,70.20
2018-02-21T08:40:15.912Z,70.50
2018-02-21T08:42:43.389Z,70.50
2018-02-21T08:45:10.839Z,70.40
2018-02-21T08:47:38.276Z,70.00
2018-02-21T08:50:05.737Z,69.80
2018-02-21T08:52:33.191Z,69.80
2018-02-21T08:55:00.636Z,69.80
2018-02-21T08:57:28.842Z,69.70
2018-02-21T08:59:56.326Z,69.60
2018-02-21T09:02:23.775Z,69.50
2018-02-21T09:04:51.271Z,70.20
2018-02-21T09:07:18.750Z,69.50
2018-02-21T09:09:46.222Z,69.60
2018-02-21T09:12:13.672Z,69.60
2018-02-21T09:14:41.114Z,69.70
2018-02-21T09:17:08.581Z,69.80
2018-02-21T09:19:36.071Z,69.70
2018-02-21T09:22:03.525Z,69.60
2018-02-21T09:24:30.999Z,69.80
2018-02-21T09:26:58.460Z,69.90
2018-02-21T09:29:25.905Z,70.00
2018-02-21T09:31:53.367Z,70.30
2018-02-21T09:34:20.809Z,70.60
2018-02-21T09:36:48.257Z,71.00
2018-02-21T09:39:15.709Z,71.20
2018-02-21T09:41:43.159Z,71.60
2018-02-21T09:44:10.601Z,71.80
2018-02-21T09:46:38.834Z,71.70
2018-02-21T09:49:06.289Z,71.50
2018-02-21T09:51:33.783Z,71.40
2018-02-21T09:54:01.247Z,71.20
2018-02-21T09:56:28.717Z,71.00
2018-02-21T09:58:56.169Z,70.40
2018-02-21T10:01:23.626Z,70.00
2018-02-21T10:03:52.042Z,69.90
2018-02-21T10:06:19.486Z,69.90
2018-02-21T10:08:46.928Z,69.80
2018-02-21T10:11:14.391Z,69.50
2018-02-21T10:13:41.815Z,69.40
2018-02-21T10:16:09.284Z,69.40
2018-02-21T10:18:36.743Z,69.50
2018-02-21T10:21:04.185Z,69.40
2018-02-21T10:23:32.392Z,69.60
2018-02-21T10:25:59.858Z,69.50
2018-02-21T10:28:27.302Z,69.50
2018-02-21T10:30:54.749Z,69.50
2018-02-21T10:33:22.979Z,69.10
2018-02-21T10:35:50.427Z,69.00
2018-02-21T10:38:17.867Z,68.90
2018-02-21T10:40:45.327Z,68.80
2018-02-21T10:43:13.533Z,68.40
2018-02-21T10:45:40.994Z,68.40
2018-02-21T10:48:08.436Z,67.90
2018-02-21T10:50:35.892Z,67.90
2018-02-21T10:53:04.096Z,67.80
2018-02-21T10:55:31.535Z,67.70
2018-02-21T10:57:59.757Z,67.20
2018-02-21T11:00:32.845Z,67.20
2018-02-21T11:03:00.289Z,67.30
2018-02-21T11:05:27.746Z,67.30
2018-02-21T11:07:55.198Z,67.70
2018-02-21T11:10:23.394Z,67.80
2018-02-21T11:12:50.838Z,67.90
2018-02-21T11:15:18.273Z,68.10
2018-02-21T11:17:45.735Z,68.20
2018-02-21T11:20:13.177Z,68.10
2018-02-21T11:22:40.624Z,68.70
2018-02-21T11:25:08.067Z,67.90
2018-02-21T11:27:35.517Z,67.70
2018-02-21T11:30:02.957Z,67.60
2018-02-21T11:32:31.183Z,67.50
2018-02-21T11:34:58.625Z,67.40
2018-02-21T11:37:26.082Z,66.70
2018-02-21T11:39:53.505Z,66.40
2018-02-21T11:42:20.967Z,65.70
2018-02-21T11:44:48.400Z,66.20
2018-02-21T11:47:15.845Z,65.40
2018-02-21T11:49:43.281Z,65.60
2018-02-21T11:52:11.498Z,64.50
2018-02-21T11:54:38.946Z,64.50
2018-02-21T11:57:06.394Z,65.30
2018-02-21T11:59:33.828Z,64.10
2018-02-21T12:02:01.266Z,64.30
2018-02-21T12:04:28.717Z,63.80
2018-02-21T12:06:56.158Z,64.50
2018-02-21T12:09:23.604Z,64.70
2018-02-21T12:11:51.063Z,63.60
2018-02-21T12:14:18.505Z,64.00
2018-02-21T12:16:46.720Z,61.00
2018-02-21T12:19:14.176Z,61.10
2018-02-21T12:21:41.612Z,61.90
2018-02-21T12:24:09.823Z,62.00
2018-02-21T12:26:37.294Z,62.10
2018-02-21T12:29:04.773Z,62.20
2018-02-21T12:31:32.218Z,62.30
2018-02-21T12:33:59.690Z,62.10
2018-02-21T12:36:27.157Z,61.80
2018-02-21T12:39:00.422Z,60.30
2018-02-21T12:41:33.582Z,60.90
2018-02-21T12:44:01.803Z,60.90
2018-02-21T12:46:29.253Z,60.60
2018-02-21T12:48:56.706Z,60.10
2018-02-21T12:51:24.896Z,60.40
2018-02-21T12:53:52.341Z,60.30
2018-02-21T12:56:20.540Z,59.80
2018-02-21T12:58:47.984Z,59.80
2018-02-21T13:01:16.208Z,58.60
2018-02-21T13:03:43.658Z,58.70
2018-02-21T13:06:11.103Z,58.70
2018-02-21T13:08:38.559Z,58.40
2018-02-21T13:11:06.020Z,58.50
2018-02-21T13:13:34.233Z,59.60
2018-02-21T13:16:01.684Z,59.60
2018-02-21T13:18:29.196Z,58.60
2018-02-21T13:20:56.696Z,58.20
2018-02-21T13:23:24.909Z,58.30
2018-02-21T13:25:52.406Z,58.20
2018-02-21T13:28:19.802Z,58.70
2018-02-21T13:30:47.232Z,58.20
2018-02-21T13:33:15.472Z,58.20
2018-02-21T13:35:42.919Z,58.10
2018-02-21T13:38:10.392Z,58.10
2018-02-21T13:40:37.827Z,57.30
2018-02-21T13:43:05.273Z,57.40
2018-02-21T13:45:33.473Z,57.50
2018-02-21T13:48:00.931Z,57.40
2018-02-21T13:50:28.362Z,57.70
2018-02-21T13:52:55.817Z,57.30
2018-02-21T13:55:23.287Z,56.90
2018-02-21T13:57:50.706Z,57.60
2018-02-21T14:00:18.164Z,57.20
2018-02-21T14:02:45.620Z,56.90
2018-02-21T14:05:13.074Z,55.90
2018-02-21T14:07:40.519Z,56.40
2018-02-21T14:10:08.748Z,55.80
2018-02-21T14:12:36.199Z,55.80
2018-02-21T14:15:03.663Z,55.80
2018-02-21T14:17:31.141Z,56.10
2018-02-21T14:19:58.556Z,56.50
2018-02-21T14:22:25.989Z,55.10
2018-02-21T14:24:53.433Z,55.80
2018-02-21T14:27:20.888Z,55.20
2018-02-21T14:29:48.347Z,54.70
2018-02-21T14:32:15.794Z,55.90
2018-02-21T14:34:43.244Z,54.70
2018-02-21T14:37:10.688Z,55.00
2018-02-21T14:39:38.133Z,55.60
2018-02-21T14:42:06.355Z,53.90
2018-02-21T14:44:33.815Z,53.90
2018-02-21T14:47:01.259Z,54.60
2018-02-21T14:49:28.717Z,54.30
2018-02-21T14:51:56.978Z,54.30
2018-02-21T14:54:25.204Z,54.00
2018-02-21T14:56:52.647Z,54.10
2018-02-21T14:59:20.122Z,54.30
2018-02-21T15:01:47.606Z,54.20
2018-02-21T15:04:15.082Z,53.60
2018-02-21T15:06:42.534Z,53.30
2018-02-21T15:09:09.987Z,54.30
2018-02-21T15:11:37.436Z,54.30
2018-02-21T15:14:04.886Z,53.80
2018-02-21T15:16:32.348Z,53.90
2018-02-21T15:18:59.826Z,54.00
2018-02-21T15:21:27.282Z,53.70
2018-02-21T15:23:54.726Z,53.80
2018-02-21T15:26:22.213Z,54.30
2018-02-21T15:28:49.686Z,54.30
2018-02-21T15:31:17.867Z,54.60
2018-02-21T15:33:45.316Z,54.50
2018-02-21T15:36:12.757Z,54.50
2018-02-21T15:38:40.225Z,54.60
2018-02-21T15:41:08.430Z,54.70
2018-02-21T15:43:35.875Z,54.70
2018-02-21T15:46:03.343Z,54.50
2018-02-21T15:48:30.793Z,54.40
2018-02-21T15:50:58.257Z,54.50
2018-02-21T15:53:25.711Z,54.50
2018-02-21T15:55:53.172Z,54.70
2018-02-21T15:58:20.610Z,55.00
2018-02-21T16:00:48.840Z,55.10
2018-02-21T16:03:16.292Z,55.10
2018-02-21T16:05:43.763Z,54.90
2018-02-21T16:08:11.213Z,55.10
2018-02-21T16:10:39.098Z,54.90
2018-02-21T16:13:06.559Z,55.00
2018-02-21T16:15:34.008Z,55.00
2018-02-21T16:18:01.446Z,55.10
2018-02-21T16:20:29.672Z,55.30
2018-02-21T16:22:57.151Z,55.30
2018-02-21T16:25:24.607Z,55.10
2018-02-21T16:27:52.058Z,55.30
2018-02-21T16:30:19.512Z,55.40
2018-02-21T16:32:46.982Z,55.40
2018-02-21T16:35:14.437Z,55.40
2018-02-21T16:37:41.891Z,55.50
2018-02-21T16:40:09.356Z,55.40
2018-02-21T16:42:36.809Z,55.60
2018-02-21T16:45:04.276Z,55.50
2018-02-21T16:47:31.756Z,55.60
2018-02-21T16:49:59.208Z,55.60
2018-02-21T16:52:26.676Z,55.60
2018-02-21T16:54:55.120Z,55.60
2018-02-21T16:57:23.362Z,55.60
2018-02-21T16:59:50.804Z,55.60
2018-02-21T17:02:18.264Z,55.80
2018-02-21T17:04:45.719Z,55.60
2018-02-21T17:07:13.183Z,55.70
2018-02-21T17:09:40.628Z,55.70
2018-02-21T17:12:08.091Z,55.80
2018-02-21T17:14:35.539Z,55.90
2018-02-21T17:17:03.763Z,55.80
2018-02-21T17:19:31.224Z,55.80
2018-02-21T17:21:58.686Z,56.00
2018-02-21T17:24:26.138Z,56.00
2018-02-21T17:26:53.595Z,56.00
2018-02-21T17:29:21.048Z,56.10
2018-02-21T17:31:48.507Z,56.20
2018-02-21T17:34:16.004Z,56.20
2018-02-21T17:36:43.445Z,56.20
2018-02-21T17:39:10.888Z,56.20
2018-02-21T17:41:38.347Z,56.20
2018-02-21T17:44:06.587Z,56.30
2018-02-21T17:46:34.023Z,56.30
2018-02-21T17:49:01.475Z,56.40
2018-02-21T17:51:28.946Z,56.30
2018-02-21T17:53:56.403Z,56.10
2018-02-21T17:56:24.878Z,56.00
2018-02-21T17:58:52.341Z,56.00
2018-02-21T18:01:19.807Z,55.80
2018-02-21T18:03:47.252Z,56.00
2018-02-21T18:06:15.491Z,56.10
2018-02-21T18:08:42.934Z,56.00
2018-02-21T18:11:11.151Z,56.80
2018-02-21T18:13:39.364Z,56.70
2018-02-21T18:16:06.810Z,56.10
2018-02-21T18:18:35.036Z,56.10
2018-02-21T18:21:02.487Z,56.10
2018-02-21T18:23:29.942Z,56.20
2018-02-21T18:25:57.396Z,56.20
2018-02-21T18:28:24.849Z,56.10
2018-02-21T18:30:52.281Z,56.10
2018-02-21T18:33:20.503Z,56.50
2018-02-21T18:35:47.933Z,56.30
2018-02-21T18:38:16.144Z,56.40
2018-02-21T18:40:43.585Z,56.40
2018-02-21T18:43:11.029Z,57.00
2018-02-21T18:45:39.237Z,56.40
2018-02-21T18:48:06.672Z,56.20
2018-02-21T18:50:34.888Z,56.30
2018-02-21T18:53:02.352Z,56.30
2018-02-21T18:55:29.794Z,56.00
2018-02-21T18:57:57.253Z,56.80
2018-02-21T19:00:25.455Z,56.30
2018-02-21T19:02:52.901Z,56.20
2018-02-21T19:05:20.355Z,56.20
2018-02-21T19:07:48.562Z,56.00
2018-02-21T19:10:15.997Z,56.00
2018-02-21T19:12:43.466Z,56.00
2018-02-21T19:15:11.685Z,56.10
2018-02-21T19:17:39.133Z,56.10
2018-02-21T19:20:06.587Z,56.10
2018-02-21T19:22:34.051Z,56.00
2018-02-21T19:25:01.496Z,56.10
2018-02-21T19:27:29.723Z,56.10
2018-02-21T19:29:57.163Z,56.10
2018-02-21T19:32:24.601Z,56.20
2018-02-21T19:34:52.062Z,56.20
2018-02-21T19:37:20.331Z,56.00
2018-02-21T19:39:47.739Z,56.10
2018-02-21T19:42:15.173Z,55.90
2018-02-21T19:44:42.624Z,56.00
2018-02-21T19:47:10.064Z,56.00
2018-02-21T19:49:37.531Z,56.10
2018-02-21T19:52:04.985Z,56.80
2018-02-21T19:54:32.452Z,56.20
2018-02-21T19:56:59.900Z,56.20
2018-02-21T19:59:28.250Z,56.20
2018-02-21T20:01:55.689Z,56.30
2018-02-21T20:04:23.148Z,56.30
2018-02-21T20:06:50.607Z,56.50
2018-02-21T20:09:18.073Z,56.50
2018-02-21T20:11:45.524Z,56.60
2018-02-21T20:14:13.739Z,56.50
2018-02-21T20:16:41.220Z,56.50
2018-02-21T20:19:08.649Z,56.60
2018-02-21T20:21:36.110Z,56.60
2018-02-21T20:24:03.563Z,56.50
2018-02-21T20:26:31.007Z,56.50
2018-02-21T20:28:59.213Z,56.60
2018-02-21T20:31:26.690Z,56.60
2018-02-21T20:33:54.169Z,56.60
2018-02-21T20:36:21.593Z,56.70
2018-02-21T20:38:49.043Z,56.80
2018-02-21T20:41:17.253Z,56.70
2018-02-21T20:43:44.721Z,56.70
2018-02-21T20:46:12.160Z,56.60
2018-02-21T20:48:39.617Z,56.60
2018-02-21T20:51:07.066Z,56.60
2018-02-21T20:53:35.266Z,56.70
2018-02-21T20:56:02.724Z,56.70
2018-02-21T20:58:30.170Z,56.80
2018-02-21T21:00:58.382Z,57.00
2018-02-21T21:03:25.820Z,57.50
2018-02-21T21:05:53.296Z,57.00
2018-02-21T21:08:20.752Z,57.00
2018-02-21T21:10:48.208Z,57.10
2018-02-21T21:13:15.653Z,57.30
2018-02-21T21:15:43.902Z,57.40
2018-02-21T21:18:11.304Z,57.30
2018-02-21T21:20:39.533Z,57.50
2018-02-21T21:23:06.974Z,57.40
2018-02-21T21:25:34.425Z,57.50
2018-02-21T21:28:01.917Z,57.50
2018-02-21T21:30:30.069Z,57.60
2018-02-21T21:32:57.508Z,57.60
2018-02-21T21:35:25.725Z,57.70
2018-02-21T21:37:53.203Z,57.70
2018-02-21T21:40:20.626Z,57.70
2018-02-21T21:42:48.079Z,57.70
2018-02-21T21:45:16.313Z,57.90
2018-02-21T21:47:43.748Z,57.90
2018-02-21T21:50:11.199Z,58.10
2018-02-21T21:52:38.633Z,58.20
2018-02-21T21:55:06.856Z,58.20
2018-02-21T21:57:34.296Z,58.20
2018-02-21T22:00:01.754Z,58.30
2018-02-21T22:02:29.957Z,58.50
2018-02-21T22:04:57.401Z,58.50
2018-02-21T22:07:24.840Z,58.50
2018-02-21T22:09:53.064Z,58.60
2018-02-21T22:12:20.500Z,58.60
2018-02-21T22:14:47.953Z,58.60
2018-02-21T22:17:16.176Z,58.70
2018-02-21T22:19:43.612Z,58.70
2018-02-21T22:22:11.067Z,58.70
2018-02-21T22:24:38.521Z,58.80
2018-02-21T22:27:06.728Z,58.80
2018-02-21T22:29:34.171Z,58.80
2018-02-21T22:32:01.661Z,58.80
2018-02-21T22:37:32.811Z,58.90
2018-02-21T22:40:00.279Z,58.90
2018-02-21T22:42:27.747Z,58.80
2018-02-21T22:44:55.193Z,58.80
2018-02-21T22:47:23.411Z,58.70
2018-02-21T22:49:50.866Z,58.70
2018-02-21T22:52:18.338Z,58.80
2018-02-21T22:54:45.784Z,58.90
2018-02-21T22:57:13.237Z,59.10
2018-02-21T22:59:40.687Z,58.90
2018-02-21T23:02:08.136Z,59.00
2018-02-21T23:04:35.596Z,59.10
2018-02-21T23:07:03.050Z,59.20
2018-02-21T23:09:30.538Z,59.20
2018-02-21T23:11:58.000Z,59.20
2018-02-21T23:14:25.454Z,59.30
2018-02-21T23:16:52.923Z,59.40
2018-02-21T23:19:20.394Z,59.40
2018-02-21T23:21:47.852Z,59.40
2018-02-21T23:24:15.289Z,59.40
2018-02-21T23:26:42.732Z,59.40
2018-02-21T23:29:10.190Z,59.40
2018-02-21T23:31:38.414Z,59.60
2018-02-21T23:34:05.853Z,59.50
2018-02-21T23:36:33.325Z,59.40
2018-02-21T23:39:00.765Z,59.30
2018-02-21T23:41:28.220Z,59.40
2018-02-21T23:43:56.433Z,59.60
2018-02-21T23:46:23.930Z,59.60
2018-02-21T23:48:51.325Z,59.60
2018-02-21T23:51:19.568Z,59.60
2018-02-21T23:53:47.020Z,59.60
2018-02-21T23:56:14.485Z,59.50
2018-02-21T23:58:42.696Z,59.50
